sensor_id;sensor_type;location;lat;lon;timestamp;temperature;humidity
1626;DHT22;806;48.770;9.156;2022-12-07T00:00:51;5.00;99.90
1626;DHT22;806;48.770;9.156;2022-12-07T00:03:18;5.00;99.90
1626;DHT22;806;48.770;9.156;2022-12-07T00:05:46;5.00;99.90
1626;DHT22;806;48.770;9.156;2022-12-07T00:08:13;5.10;99.90
1626;DHT22;806;48.770;9.156;2022-12-07T00:10:40;5.10;99.90
1626;DHT22;806;48.770;9.156;2022-12-07T00:13:07;5.20;99.90
1626;DHT22;806;48.770;9.156;2022-12-07T00:15:34;5.20;99.90
1626;DHT22;806;48.770;9.156;2022-12-07T00:18:02;5.20;99.90
1626;DHT22;806;48.770;9.156;2022-12-07T00:20:29;4.90;99.90
1626;DHT22;806;48.770;9.156;2022-12-07T00:22:57;4.90;99.90
1626;DHT22;806;48.770;9.156;2022-12-07T00:25:24;5.10;99.90
1626;DHT22;806;48.770;9.156;2022-12-07T00:27:52;5.10;99.90
1626;DHT22;806;48.770;9.156;2022-12-07T00:30:19;5.10;99.90
1626;DHT22;806;48.770;9.156;2022-12-07T00:32:46;5.00;99.90
1626;DHT22;806;48.770;9.156;2022-12-07T00:35:13;5.00;99.90
1626;DHT22;806;48.770;9.156;2022-12-07T00:37:40;5.20;99.90
1626;DHT22;806;48.770;9.156;2022-12-07T00:40:09;5.20;99.90
1626;DHT22;806;48.770;9.156;2022-12-07T00:42:36;5.10;99.90
1626;DHT22;806;48.770;9.156;2022-12-07T00:45:03;5.20;99.90
1626;DHT22;806;48.770;9.156;2022-12-07T00:47:30;5.30;99.90
1626;DHT22;806;48.770;9.156;2022-12-07T00:49:57;5.30;99.90
1626;DHT22;806;48.770;9.156;2022-12-07T00:52:25;5.10;99.90
1626;DHT22;806;48.770;9.156;2022-12-07T00:54:52;5.20;99.90
1626;DHT22;806;48.770;9.156;2022-12-07T00:57:20;5.20;99.90
1626;DHT22;806;48.770;9.156;2022-12-07T00:59:48;5.20;99.90
1626;DHT22;806;48.770;9.156;2022-12-07T01:02:15;5.30;99.90
1626;DHT22;806;48.770;9.156;2022-12-07T01:04:42;5.30;99.90
1626;DHT22;806;48.770;9.156;2022-12-07T01:07:09;5.00;99.90
1626;DHT22;806;48.770;9.156;2022-12-07T01:09:35;4.70;99.90
1626;DHT22;806;48.770;9.156;2022-12-07T01:12:03;4.60;99.90
1626;DHT22;806;48.770;9.156;2022-12-07T01:14:31;4.70;99.90
1626;DHT22;806;48.770;9.156;2022-12-07T01:16:58;4.70;99.90
1626;DHT22;806;48.770;9.156;2022-12-07T01:19:25;4.80;99.90
1626;DHT22;806;48.770;9.156;2022-12-07T01:21:52;4.80;99.90
1626;DHT22;806;48.770;9.156;2022-12-07T01:24:19;4.70;99.90
1626;DHT22;806;48.770;9.156;2022-12-07T01:26:45;4.80;99.90
1626;DHT22;806;48.770;9.156;2022-12-07T01:29:15;5.00;99.90
1626;DHT22;806;48.770;9.156;2022-12-07T01:31:43;5.20;99.90
1626;DHT22;806;48.770;9.156;2022-12-07T01:34:10;5.20;99.90
1626;DHT22;806;48.770;9.156;2022-12-07T01:36:37;5.10;99.90
1626;DHT22;806;48.770;9.156;2022-12-07T01:39:06;4.90;99.90
1626;DHT22;806;48.770;9.156;2022-12-07T01:41:35;4.80;99.90
1626;DHT22;806;48.770;9.156;2022-12-07T01:44:13;5.00;99.90
1626;DHT22;806;48.770;9.156;2022-12-07T01:46:43;5.10;99.90
1626;DHT22;806;48.770;9.156;2022-12-07T01:49:12;5.20;99.90
1626;DHT22;806;48.770;9.156;2022-12-07T01:51:42;5.40;99.90
1626;DHT22;806;48.770;9.156;2022-12-07T01:54:11;5.30;99.90
1626;DHT22;806;48.770;9.156;2022-12-07T01:56:40;5.10;99.90
1626;DHT22;806;48.770;9.156;2022-12-07T01:59:08;5.00;99.90
1626;DHT22;806;48.770;9.156;2022-12-07T02:01:35;4.80;99.90
1626;DHT22;806;48.770;9.156;2022-12-07T02:04:04;4.80;99.90
1626;DHT22;806;48.770;9.156;2022-12-07T02:06:32;4.80;99.90
1626;DHT22;806;48.770;9.156;2022-12-07T02:08:59;4.70;99.90
1626;DHT22;806;48.770;9.156;2022-12-07T02:11:26;4.70;99.90
1626;DHT22;806;48.770;9.156;2022-12-07T02:13:54;4.80;99.90
1626;DHT22;806;48.770;9.156;2022-12-07T02:16:30;4.80;99.90
1626;DHT22;806;48.770;9.156;2022-12-07T02:19:14;4.90;99.90
1626;DHT22;806;48.770;9.156;2022-12-07T02:21:48;4.80;99.90
1626;DHT22;806;48.770;9.156;2022-12-07T02:24:40;4.70;99.90
1626;DHT22;806;48.770;9.156;2022-12-07T02:27:28;4.60;99.90
1626;DHT22;806;48.770;9.156;2022-12-07T02:30:04;4.80;99.90
1626;DHT22;806;48.770;9.156;2022-12-07T02:32:42;4.80;99.90
1626;DHT22;806;48.770;9.156;2022-12-07T02:35:13;4.70;99.90
1626;DHT22;806;48.770;9.156;2022-12-07T02:37:48;4.50;99.90
1626;DHT22;806;48.770;9.156;2022-12-07T02:40:19;4.50;99.90
1626;DHT22;806;48.770;9.156;2022-12-07T02:42:52;4.50;99.90
1626;DHT22;806;48.770;9.156;2022-12-07T02:45:25;4.50;99.90
1626;DHT22;806;48.770;9.156;2022-12-07T02:47:56;4.50;99.90
1626;DHT22;806;48.770;9.156;2022-12-07T02:50:25;4.40;99.90
1626;DHT22;806;48.770;9.156;2022-12-07T02:52:52;4.40;99.90
1626;DHT22;806;48.770;9.156;2022-12-07T02:55:23;4.40;99.90
1626;DHT22;806;48.770;9.156;2022-12-07T02:58:17;4.50;99.90
1626;DHT22;806;48.770;9.156;2022-12-07T03:00:54;4.90;99.90
1626;DHT22;806;48.770;9.156;2022-12-07T03:03:26;5.00;99.90
1626;DHT22;806;48.770;9.156;2022-12-07T03:06:06;5.00;99.90
1626;DHT22;806;48.770;9.156;2022-12-07T03:08:42;4.80;99.90
1626;DHT22;806;48.770;9.156;2022-12-07T03:11:13;4.70;99.90
1626;DHT22;806;48.770;9.156;2022-12-07T03:13:45;4.60;99.90
1626;DHT22;806;48.770;9.156;2022-12-07T03:16:15;4.60;99.90
1626;DHT22;806;48.770;9.156;2022-12-07T03:18:46;4.60;99.90
1626;DHT22;806;48.770;9.156;2022-12-07T03:21:17;4.50;99.90
1626;DHT22;806;48.770;9.156;2022-12-07T03:23:48;4.50;99.90
1626;DHT22;806;48.770;9.156;2022-12-07T03:26:18;4.80;99.90
1626;DHT22;806;48.770;9.156;2022-12-07T03:28:51;4.70;99.90
1626;DHT22;806;48.770;9.156;2022-12-07T03:31:23;4.60;99.90
1626;DHT22;806;48.770;9.156;2022-12-07T03:33:56;4.50;99.90
1626;DHT22;806;48.770;9.156;2022-12-07T03:36:29;4.50;99.90
1626;DHT22;806;48.770;9.156;2022-12-07T03:39:00;4.50;99.90
1626;DHT22;806;48.770;9.156;2022-12-07T03:41:32;4.50;99.90
1626;DHT22;806;48.770;9.156;2022-12-07T03:44:02;4.50;99.90
1626;DHT22;806;48.770;9.156;2022-12-07T03:46:36;4.50;99.90
1626;DHT22;806;48.770;9.156;2022-12-07T03:49:10;4.50;99.90
1626;DHT22;806;48.770;9.156;2022-12-07T03:51:42;4.40;99.90
1626;DHT22;806;48.770;9.156;2022-12-07T03:54:17;4.40;99.90
1626;DHT22;806;48.770;9.156;2022-12-07T03:56:47;4.40;99.90
1626;DHT22;806;48.770;9.156;2022-12-07T03:59:15;4.40;99.90
1626;DHT22;806;48.770;9.156;2022-12-07T04:01:44;4.40;99.90
1626;DHT22;806;48.770;9.156;2022-12-07T04:04:11;4.40;99.90
1626;DHT22;806;48.770;9.156;2022-12-07T04:06:38;4.60;99.90
1626;DHT22;806;48.770;9.156;2022-12-07T04:09:05;4.60;99.90
1626;DHT22;806;48.770;9.156;2022-12-07T04:11:32;4.60;99.90
1626;DHT22;806;48.770;9.156;2022-12-07T04:13:59;4.60;99.90
1626;DHT22;806;48.770;9.156;2022-12-07T04:16:45;4.80;99.90
1626;DHT22;806;48.770;9.156;2022-12-07T04:19:12;4.70;99.90
1626;DHT22;806;48.770;9.156;2022-12-07T04:21:39;4.90;99.90
1626;DHT22;806;48.770;9.156;2022-12-07T04:24:06;4.80;99.90
1626;DHT22;806;48.770;9.156;2022-12-07T04:26:33;4.80;99.90
1626;DHT22;806;48.770;9.156;2022-12-07T04:29:00;4.90;99.90
1626;DHT22;806;48.770;9.156;2022-12-07T04:31:27;4.90;99.90
1626;DHT22;806;48.770;9.156;2022-12-07T04:33:56;4.90;99.90
1626;DHT22;806;48.770;9.156;2022-12-07T04:36:23;4.90;99.90
1626;DHT22;806;48.770;9.156;2022-12-07T04:38:49;4.90;99.90
1626;DHT22;806;48.770;9.156;2022-12-07T04:41:16;5.00;99.90
1626;DHT22;806;48.770;9.156;2022-12-07T04:43:43;5.10;99.90
1626;DHT22;806;48.770;9.156;2022-12-07T04:46:10;5.00;99.90
1626;DHT22;806;48.770;9.156;2022-12-07T04:48:37;5.00;99.90
1626;DHT22;806;48.770;9.156;2022-12-07T04:51:06;5.00;99.90
1626;DHT22;806;48.770;9.156;2022-12-07T04:53:33;4.80;99.90
1626;DHT22;806;48.770;9.156;2022-12-07T04:55:59;4.60;99.90
1626;DHT22;806;48.770;9.156;2022-12-07T04:58:27;4.40;99.90
1626;DHT22;806;48.770;9.156;2022-12-07T05:00:55;4.40;99.90
1626;DHT22;806;48.770;9.156;2022-12-07T05:03:22;4.40;99.90
1626;DHT22;806;48.770;9.156;2022-12-07T05:05:48;4.50;99.90
1626;DHT22;806;48.770;9.156;2022-12-07T05:08:17;4.50;99.90
1626;DHT22;806;48.770;9.156;2022-12-07T05:10:44;4.40;99.90
1626;DHT22;806;48.770;9.156;2022-12-07T05:13:11;4.40;99.90
1626;DHT22;806;48.770;9.156;2022-12-07T05:15:37;4.40;99.90
1626;DHT22;806;48.770;9.156;2022-12-07T05:18:04;4.30;99.90
1626;DHT22;806;48.770;9.156;2022-12-07T05:20:31;4.30;99.90
1626;DHT22;806;48.770;9.156;2022-12-07T05:22:58;4.40;99.90
1626;DHT22;806;48.770;9.156;2022-12-07T05:25:27;4.40;99.90
1626;DHT22;806;48.770;9.156;2022-12-07T05:27:55;4.30;99.90
1626;DHT22;806;48.770;9.156;2022-12-07T05:30:22;4.40;99.90
1626;DHT22;806;48.770;9.156;2022-12-07T05:32:49;4.40;99.90
1626;DHT22;806;48.770;9.156;2022-12-07T05:35:16;4.40;99.90
1626;DHT22;806;48.770;9.156;2022-12-07T05:37:43;4.40;99.90
1626;DHT22;806;48.770;9.156;2022-12-07T05:40:11;4.30;99.90
1626;DHT22;806;48.770;9.156;2022-12-07T05:42:40;4.30;99.90
1626;DHT22;806;48.770;9.156;2022-12-07T05:45:08;4.40;99.90
1626;DHT22;806;48.770;9.156;2022-12-07T05:47:36;4.30;99.90
1626;DHT22;806;48.770;9.156;2022-12-07T05:50:05;4.30;99.90
1626;DHT22;806;48.770;9.156;2022-12-07T05:52:32;4.30;99.90
1626;DHT22;806;48.770;9.156;2022-12-07T05:54:59;4.40;99.90
1626;DHT22;806;48.770;9.156;2022-12-07T05:57:26;4.30;99.90
1626;DHT22;806;48.770;9.156;2022-12-07T05:59:54;4.30;99.90
1626;DHT22;806;48.770;9.156;2022-12-07T06:02:20;4.30;99.90
1626;DHT22;806;48.770;9.156;2022-12-07T06:04:47;4.30;99.90
1626;DHT22;806;48.770;9.156;2022-12-07T06:07:16;4.20;99.90
1626;DHT22;806;48.770;9.156;2022-12-07T06:09:43;4.30;99.90
1626;DHT22;806;48.770;9.156;2022-12-07T06:12:11;4.40;99.90
1626;DHT22;806;48.770;9.156;2022-12-07T06:15:11;4.40;99.90
1626;DHT22;806;48.770;9.156;2022-12-07T06:17:39;4.30;99.90
1626;DHT22;806;48.770;9.156;2022-12-07T06:20:07;4.20;99.90
1626;DHT22;806;48.770;9.156;2022-12-07T06:22:34;4.10;99.90
1626;DHT22;806;48.770;9.156;2022-12-07T06:25:01;4.00;99.90
1626;DHT22;806;48.770;9.156;2022-12-07T06:27:29;3.90;99.90
1626;DHT22;806;48.770;9.156;2022-12-07T06:29:58;4.00;99.90
1626;DHT22;806;48.770;9.156;2022-12-07T06:32:26;4.00;99.90
1626;DHT22;806;48.770;9.156;2022-12-07T06:34:53;4.10;99.90
1626;DHT22;806;48.770;9.156;2022-12-07T06:37:20;4.00;99.90
1626;DHT22;806;48.770;9.156;2022-12-07T06:39:47;3.90;99.90
1626;DHT22;806;48.770;9.156;2022-12-07T06:42:14;3.90;99.90
1626;DHT22;806;48.770;9.156;2022-12-07T06:44:41;3.90;99.90
1626;DHT22;806;48.770;9.156;2022-12-07T06:47:08;3.90;99.90
1626;DHT22;806;48.770;9.156;2022-12-07T06:49:36;3.90;99.90
1626;DHT22;806;48.770;9.156;2022-12-07T06:52:04;3.90;99.90
1626;DHT22;806;48.770;9.156;2022-12-07T06:54:31;3.90;99.90
1626;DHT22;806;48.770;9.156;2022-12-07T06:56:58;3.80;99.90
1626;DHT22;806;48.770;9.156;2022-12-07T06:59:25;3.70;99.90
1626;DHT22;806;48.770;9.156;2022-12-07T07:01:52;3.60;99.90
1626;DHT22;806;48.770;9.156;2022-12-07T07:04:19;3.60;99.90
1626;DHT22;806;48.770;9.156;2022-12-07T07:06:47;3.50;99.90
1626;DHT22;806;48.770;9.156;2022-12-07T07:09:14;3.40;99.90
1626;DHT22;806;48.770;9.156;2022-12-07T07:11:41;3.40;99.90
1626;DHT22;806;48.770;9.156;2022-12-07T07:14:08;3.40;99.90
1626;DHT22;806;48.770;9.156;2022-12-07T07:16:35;3.50;99.90
1626;DHT22;806;48.770;9.156;2022-12-07T07:19:01;3.50;99.90
1626;DHT22;806;48.770;9.156;2022-12-07T07:21:28;3.50;99.90
1626;DHT22;806;48.770;9.156;2022-12-07T07:23:57;3.60;99.90
1626;DHT22;806;48.770;9.156;2022-12-07T07:26:24;3.60;99.90
1626;DHT22;806;48.770;9.156;2022-12-07T07:28:51;3.80;99.90
1626;DHT22;806;48.770;9.156;2022-12-07T07:31:18;3.70;99.90
1626;DHT22;806;48.770;9.156;2022-12-07T07:33:45;3.80;99.90
1626;DHT22;806;48.770;9.156;2022-12-07T07:36:12;3.80;99.90
1626;DHT22;806;48.770;9.156;2022-12-07T07:38:46;3.80;99.90
1626;DHT22;806;48.770;9.156;2022-12-07T07:41:15;3.70;99.90
1626;DHT22;806;48.770;9.156;2022-12-07T07:43:42;3.70;99.90
1626;DHT22;806;48.770;9.156;2022-12-07T07:46:09;3.70;99.90
1626;DHT22;806;48.770;9.156;2022-12-07T07:48:36;3.70;99.90
1626;DHT22;806;48.770;9.156;2022-12-07T07:51:05;3.70;99.90
1626;DHT22;806;48.770;9.156;2022-12-07T07:53:32;3.70;99.90
1626;DHT22;806;48.770;9.156;2022-12-07T07:55:59;3.70;99.90
1626;DHT22;806;48.770;9.156;2022-12-07T07:58:28;3.70;99.90
1626;DHT22;806;48.770;9.156;2022-12-07T08:00:55;3.70;99.90
1626;DHT22;806;48.770;9.156;2022-12-07T08:03:21;3.80;99.90
1626;DHT22;806;48.770;9.156;2022-12-07T08:05:48;4.00;99.90
1626;DHT22;806;48.770;9.156;2022-12-07T08:08:15;4.40;99.90
1626;DHT22;806;48.770;9.156;2022-12-07T08:10:42;4.40;99.90
1626;DHT22;806;48.770;9.156;2022-12-07T08:13:09;4.30;99.90
1626;DHT22;806;48.770;9.156;2022-12-07T08:15:42;4.30;99.90
1626;DHT22;806;48.770;9.156;2022-12-07T08:18:09;4.50;99.90
1626;DHT22;806;48.770;9.156;2022-12-07T08:20:36;4.50;99.90
1626;DHT22;806;48.770;9.156;2022-12-07T08:23:04;4.90;99.90
1626;DHT22;806;48.770;9.156;2022-12-07T08:25:32;5.20;99.90
1626;DHT22;806;48.770;9.156;2022-12-07T08:28:01;5.20;99.90
1626;DHT22;806;48.770;9.156;2022-12-07T08:30:28;5.00;99.90
1626;DHT22;806;48.770;9.156;2022-12-07T08:32:56;5.00;99.90
1626;DHT22;806;48.770;9.156;2022-12-07T08:35:24;5.00;99.90
1626;DHT22;806;48.770;9.156;2022-12-07T08:37:51;5.10;99.90
1626;DHT22;806;48.770;9.156;2022-12-07T08:40:18;5.60;99.90
1626;DHT22;806;48.770;9.156;2022-12-07T08:42:48;5.80;99.90
1626;DHT22;806;48.770;9.156;2022-12-07T08:45:16;6.00;99.90
1626;DHT22;806;48.770;9.156;2022-12-07T08:47:47;6.20;99.90
1626;DHT22;806;48.770;9.156;2022-12-07T08:50:18;5.90;99.90
1626;DHT22;806;48.770;9.156;2022-12-07T08:52:48;5.50;99.90
1626;DHT22;806;48.770;9.156;2022-12-07T08:55:17;5.40;99.90
1626;DHT22;806;48.770;9.156;2022-12-07T08:57:45;5.30;99.90
1626;DHT22;806;48.770;9.156;2022-12-07T09:00:13;5.30;99.90
1626;DHT22;806;48.770;9.156;2022-12-07T09:02:41;5.60;99.90
1626;DHT22;806;48.770;9.156;2022-12-07T09:05:09;5.80;99.90
1626;DHT22;806;48.770;9.156;2022-12-07T09:07:38;6.00;99.90
1626;DHT22;806;48.770;9.156;2022-12-07T09:10:06;6.30;99.90
1626;DHT22;806;48.770;9.156;2022-12-07T09:12:33;6.40;99.90
1626;DHT22;806;48.770;9.156;2022-12-07T09:15:00;6.50;99.90
1626;DHT22;806;48.770;9.156;2022-12-07T09:17:31;6.40;99.90
1626;DHT22;806;48.770;9.156;2022-12-07T09:19:58;6.30;99.90
1626;DHT22;806;48.770;9.156;2022-12-07T09:22:29;6.30;99.90
1626;DHT22;806;48.770;9.156;2022-12-07T09:24:58;6.30;99.90
1626;DHT22;806;48.770;9.156;2022-12-07T09:27:25;6.30;99.90
1626;DHT22;806;48.770;9.156;2022-12-07T09:29:52;6.00;99.90
1626;DHT22;806;48.770;9.156;2022-12-07T09:32:20;6.30;99.90
1626;DHT22;806;48.770;9.156;2022-12-07T09:34:47;6.50;99.90
1626;DHT22;806;48.770;9.156;2022-12-07T09:37:14;6.30;99.90
1626;DHT22;806;48.770;9.156;2022-12-07T09:39:42;6.40;99.90
1626;DHT22;806;48.770;9.156;2022-12-07T09:42:24;6.40;99.90
1626;DHT22;806;48.770;9.156;2022-12-07T09:44:52;6.70;99.90
1626;DHT22;806;48.770;9.156;2022-12-07T09:47:19;6.70;99.90
1626;DHT22;806;48.770;9.156;2022-12-07T09:49:46;6.20;99.90
1626;DHT22;806;48.770;9.156;2022-12-07T09:52:21;5.90;99.90
1626;DHT22;806;48.770;9.156;2022-12-07T09:54:51;5.70;99.90
1626;DHT22;806;48.770;9.156;2022-12-07T09:57:31;5.80;99.90
1626;DHT22;806;48.770;9.156;2022-12-07T10:00:01;6.00;99.90
1626;DHT22;806;48.770;9.156;2022-12-07T10:02:37;6.10;99.90
1626;DHT22;806;48.770;9.156;2022-12-07T10:05:06;6.00;99.90
1626;DHT22;806;48.770;9.156;2022-12-07T10:07:33;6.00;99.90
1626;DHT22;806;48.770;9.156;2022-12-07T10:10:03;6.00;99.90
1626;DHT22;806;48.770;9.156;2022-12-07T10:12:52;6.10;99.90
1626;DHT22;806;48.770;9.156;2022-12-07T10:15:19;6.20;99.90
1626;DHT22;806;48.770;9.156;2022-12-07T10:17:49;6.30;99.90
1626;DHT22;806;48.770;9.156;2022-12-07T10:20:22;6.10;99.90
1626;DHT22;806;48.770;9.156;2022-12-07T10:22:55;6.20;99.90
1626;DHT22;806;48.770;9.156;2022-12-07T10:25:25;6.30;99.90
1626;DHT22;806;48.770;9.156;2022-12-07T10:28:11;6.40;99.90
1626;DHT22;806;48.770;9.156;2022-12-07T10:30:55;6.50;99.90
1626;DHT22;806;48.770;9.156;2022-12-07T10:33:30;6.60;99.90
1626;DHT22;806;48.770;9.156;2022-12-07T10:35:58;6.50;99.90
1626;DHT22;806;48.770;9.156;2022-12-07T10:38:26;6.50;99.90
1626;DHT22;806;48.770;9.156;2022-12-07T10:41:04;6.30;99.90
1626;DHT22;806;48.770;9.156;2022-12-07T10:43:33;6.20;99.90
1626;DHT22;806;48.770;9.156;2022-12-07T10:46:32;6.20;99.90
1626;DHT22;806;48.770;9.156;2022-12-07T10:49:14;6.10;99.90
1626;DHT22;806;48.770;9.156;2022-12-07T10:51:50;6.10;99.90
1626;DHT22;806;48.770;9.156;2022-12-07T10:54:29;6.20;99.90
1626;DHT22;806;48.770;9.156;2022-12-07T10:57:11;6.30;99.90
1626;DHT22;806;48.770;9.156;2022-12-07T11:00:01;6.30;99.90
1626;DHT22;806;48.770;9.156;2022-12-07T11:02:51;6.20;99.90
1626;DHT22;806;48.770;9.156;2022-12-07T11:05:26;6.30;99.90
1626;DHT22;806;48.770;9.156;2022-12-07T11:08:01;6.50;99.90
1626;DHT22;806;48.770;9.156;2022-12-07T11:10:38;6.70;99.90
1626;DHT22;806;48.770;9.156;2022-12-07T11:13:23;6.60;99.90
1626;DHT22;806;48.770;9.156;2022-12-07T11:16:02;6.70;99.90
1626;DHT22;806;48.770;9.156;2022-12-07T11:18:38;6.90;99.90
1626;DHT22;806;48.770;9.156;2022-12-07T11:21:10;6.60;99.90
1626;DHT22;806;48.770;9.156;2022-12-07T11:23:48;6.50;99.90
1626;DHT22;806;48.770;9.156;2022-12-07T11:26:28;6.60;99.90
1626;DHT22;806;48.770;9.156;2022-12-07T11:29:13;6.60;99.90
1626;DHT22;806;48.770;9.156;2022-12-07T11:31:53;6.80;99.90
1626;DHT22;806;48.770;9.156;2022-12-07T11:34:30;6.80;99.90
1626;DHT22;806;48.770;9.156;2022-12-07T11:37:05;6.70;99.90
1626;DHT22;806;48.770;9.156;2022-12-07T11:39:39;6.60;99.90
1626;DHT22;806;48.770;9.156;2022-12-07T11:42:13;6.70;99.90
1626;DHT22;806;48.770;9.156;2022-12-07T11:44:49;6.60;99.90
1626;DHT22;806;48.770;9.156;2022-12-07T11:47:25;6.60;99.90
1626;DHT22;806;48.770;9.156;2022-12-07T11:50:01;6.70;99.90
1626;DHT22;806;48.770;9.156;2022-12-07T11:52:36;7.10;99.90
1626;DHT22;806;48.770;9.156;2022-12-07T11:55:17;7.10;99.90
1626;DHT22;806;48.770;9.156;2022-12-07T11:57:50;7.20;99.90
1626;DHT22;806;48.770;9.156;2022-12-07T12:00:18;7.00;99.90
1626;DHT22;806;48.770;9.156;2022-12-07T12:02:51;6.70;99.90
1626;DHT22;806;48.770;9.156;2022-12-07T12:05:22;6.50;99.90
1626;DHT22;806;48.770;9.156;2022-12-07T12:07:54;6.60;99.90
1626;DHT22;806;48.770;9.156;2022-12-07T12:10:29;6.70;99.90
1626;DHT22;806;48.770;9.156;2022-12-07T12:13:16;7.00;99.90
1626;DHT22;806;48.770;9.156;2022-12-07T12:15:58;7.30;99.90
1626;DHT22;806;48.770;9.156;2022-12-07T12:18:57;7.60;99.90
1626;DHT22;806;48.770;9.156;2022-12-07T12:21:28;7.60;99.90
1626;DHT22;806;48.770;9.156;2022-12-07T12:23:57;7.50;99.90
1626;DHT22;806;48.770;9.156;2022-12-07T12:26:28;7.30;99.90
1626;DHT22;806;48.770;9.156;2022-12-07T12:28:57;7.40;99.90
1626;DHT22;806;48.770;9.156;2022-12-07T12:31:37;7.30;99.90
1626;DHT22;806;48.770;9.156;2022-12-07T12:34:38;7.40;99.90
1626;DHT22;806;48.770;9.156;2022-12-07T12:37:43;7.30;99.90
1626;DHT22;806;48.770;9.156;2022-12-07T12:40:39;7.40;99.90
1626;DHT22;806;48.770;9.156;2022-12-07T12:43:42;7.00;99.90
1626;DHT22;806;48.770;9.156;2022-12-07T12:49:43;7.50;99.90
1626;DHT22;806;48.770;9.156;2022-12-07T12:55:17;7.80;99.90
1626;DHT22;806;48.770;9.156;2022-12-07T12:57:48;7.30;99.90
1626;DHT22;806;48.770;9.156;2022-12-07T13:00:34;7.30;99.90
1626;DHT22;806;48.770;9.156;2022-12-07T13:03:01;7.30;99.90
1626;DHT22;806;48.770;9.156;2022-12-07T13:05:31;6.80;99.90
1626;DHT22;806;48.770;9.156;2022-12-07T13:08:00;6.90;99.90
1626;DHT22;806;48.770;9.156;2022-12-07T13:10:38;7.00;99.90
1626;DHT22;806;48.770;9.156;2022-12-07T13:13:29;6.80;99.90
1626;DHT22;806;48.770;9.156;2022-12-07T13:18:57;7.30;99.90
1626;DHT22;806;48.770;9.156;2022-12-07T13:21:43;7.50;99.90
1626;DHT22;806;48.770;9.156;2022-12-07T13:24:12;7.40;99.90
1626;DHT22;806;48.770;9.156;2022-12-07T13:26:42;7.10;99.90
1626;DHT22;806;48.770;9.156;2022-12-07T13:29:12;6.70;99.90
1626;DHT22;806;48.770;9.156;2022-12-07T13:31:40;6.50;99.90
1626;DHT22;806;48.770;9.156;2022-12-07T13:34:27;6.40;99.90
1626;DHT22;806;48.770;9.156;2022-12-07T13:36:56;6.50;99.90
1626;DHT22;806;48.770;9.156;2022-12-07T13:39:26;6.30;99.90
1626;DHT22;806;48.770;9.156;2022-12-07T13:41:54;6.40;99.90
1626;DHT22;806;48.770;9.156;2022-12-07T13:44:23;6.40;99.90
1626;DHT22;806;48.770;9.156;2022-12-07T13:46:57;6.20;99.90
1626;DHT22;806;48.770;9.156;2022-12-07T13:49:26;6.30;99.90
1626;DHT22;806;48.770;9.156;2022-12-07T13:52:06;6.40;99.90
1626;DHT22;806;48.770;9.156;2022-12-07T13:54:45;6.60;99.90
1626;DHT22;806;48.770;9.156;2022-12-07T13:57:12;6.60;99.90
1626;DHT22;806;48.770;9.156;2022-12-07T13:59:39;6.60;99.90
1626;DHT22;806;48.770;9.156;2022-12-07T14:02:18;6.60;99.90
1626;DHT22;806;48.770;9.156;2022-12-07T14:04:48;6.70;99.90
1626;DHT22;806;48.770;9.156;2022-12-07T14:07:23;6.70;99.90
1626;DHT22;806;48.770;9.156;2022-12-07T14:09:55;6.60;99.90
1626;DHT22;806;48.770;9.156;2022-12-07T14:12:23;6.60;99.90
1626;DHT22;806;48.770;9.156;2022-12-07T14:14:50;6.70;99.90
1626;DHT22;806;48.770;9.156;2022-12-07T14:17:19;6.50;99.90
1626;DHT22;806;48.770;9.156;2022-12-07T14:19:50;6.50;99.90
1626;DHT22;806;48.770;9.156;2022-12-07T14:22:40;6.50;99.90
1626;DHT22;806;48.770;9.156;2022-12-07T14:25:21;6.50;99.90
1626;DHT22;806;48.770;9.156;2022-12-07T14:27:52;6.50;99.90
1626;DHT22;806;48.770;9.156;2022-12-07T14:30:22;6.40;99.90
1626;DHT22;806;48.770;9.156;2022-12-07T14:32:52;6.40;99.90
1626;DHT22;806;48.770;9.156;2022-12-07T14:35:20;6.30;99.90
1626;DHT22;806;48.770;9.156;2022-12-07T14:37:48;6.30;99.90
1626;DHT22;806;48.770;9.156;2022-12-07T14:40:18;6.30;99.90
1626;DHT22;806;48.770;9.156;2022-12-07T14:42:46;6.30;99.90
1626;DHT22;806;48.770;9.156;2022-12-07T14:45:16;6.30;99.90
1626;DHT22;806;48.770;9.156;2022-12-07T14:47:44;6.20;99.90
1626;DHT22;806;48.770;9.156;2022-12-07T14:50:12;6.00;99.90
1626;DHT22;806;48.770;9.156;2022-12-07T14:52:40;5.90;99.90
1626;DHT22;806;48.770;9.156;2022-12-07T14:55:16;5.90;99.90
1626;DHT22;806;48.770;9.156;2022-12-07T14:57:45;5.90;99.90
1626;DHT22;806;48.770;9.156;2022-12-07T15:00:17;5.70;99.90
1626;DHT22;806;48.770;9.156;2022-12-07T15:02:45;5.80;99.90
1626;DHT22;806;48.770;9.156;2022-12-07T15:05:13;5.80;99.90
1626;DHT22;806;48.770;9.156;2022-12-07T15:07:41;5.80;99.90
1626;DHT22;806;48.770;9.156;2022-12-07T15:10:16;5.70;99.90
1626;DHT22;806;48.770;9.156;2022-12-07T15:12:44;5.80;99.90
1626;DHT22;806;48.770;9.156;2022-12-07T15:15:11;5.90;99.90
1626;DHT22;806;48.770;9.156;2022-12-07T15:17:38;5.90;99.90
1626;DHT22;806;48.770;9.156;2022-12-07T15:20:07;5.90;99.90
1626;DHT22;806;48.770;9.156;2022-12-07T15:22:34;5.90;99.90
1626;DHT22;806;48.770;9.156;2022-12-07T15:25:01;6.00;99.90
1626;DHT22;806;48.770;9.156;2022-12-07T15:27:31;6.10;99.90
1626;DHT22;806;48.770;9.156;2022-12-07T15:29:58;6.10;99.90
1626;DHT22;806;48.770;9.156;2022-12-07T15:32:25;6.00;99.90
1626;DHT22;806;48.770;9.156;2022-12-07T15:34:52;5.80;99.90
1626;DHT22;806;48.770;9.156;2022-12-07T15:37:19;5.70;99.90
1626;DHT22;806;48.770;9.156;2022-12-07T15:39:46;5.70;99.90
1626;DHT22;806;48.770;9.156;2022-12-07T15:42:13;5.70;99.90
1626;DHT22;806;48.770;9.156;2022-12-07T15:44:41;5.60;99.90
1626;DHT22;806;48.770;9.156;2022-12-07T15:47:26;5.60;99.90
1626;DHT22;806;48.770;9.156;2022-12-07T15:49:53;5.50;99.90
1626;DHT22;806;48.770;9.156;2022-12-07T15:52:20;5.50;99.90
1626;DHT22;806;48.770;9.156;2022-12-07T15:54:47;5.50;99.90
1626;DHT22;806;48.770;9.156;2022-12-07T15:57:14;5.60;99.90
1626;DHT22;806;48.770;9.156;2022-12-07T15:59:42;5.50;99.90
1626;DHT22;806;48.770;9.156;2022-12-07T16:02:09;5.60;99.90
1626;DHT22;806;48.770;9.156;2022-12-07T16:04:36;5.50;99.90
1626;DHT22;806;48.770;9.156;2022-12-07T16:07:04;5.40;99.90
1626;DHT22;806;48.770;9.156;2022-12-07T16:09:31;5.30;99.90
1626;DHT22;806;48.770;9.156;2022-12-07T16:11:58;5.40;99.90
1626;DHT22;806;48.770;9.156;2022-12-07T16:14:25;5.30;99.90
1626;DHT22;806;48.770;9.156;2022-12-07T16:16:53;5.10;99.90
1626;DHT22;806;48.770;9.156;2022-12-07T16:19:20;5.20;99.90
1626;DHT22;806;48.770;9.156;2022-12-07T16:21:47;5.20;99.90
1626;DHT22;806;48.770;9.156;2022-12-07T16:24:14;5.20;99.90
1626;DHT22;806;48.770;9.156;2022-12-07T16:26:42;5.30;99.90
1626;DHT22;806;48.770;9.156;2022-12-07T16:29:10;5.30;99.90
1626;DHT22;806;48.770;9.156;2022-12-07T16:31:38;5.20;99.90
1626;DHT22;806;48.770;9.156;2022-12-07T16:34:08;5.10;99.90
1626;DHT22;806;48.770;9.156;2022-12-07T16:36:35;5.20;99.90
1626;DHT22;806;48.770;9.156;2022-12-07T16:39:05;5.10;99.90
1626;DHT22;806;48.770;9.156;2022-12-07T16:41:32;5.00;99.90
1626;DHT22;806;48.770;9.156;2022-12-07T16:44:02;5.00;99.90
1626;DHT22;806;48.770;9.156;2022-12-07T16:46:31;4.90;99.90
1626;DHT22;806;48.770;9.156;2022-12-07T16:48:59;4.70;99.90
1626;DHT22;806;48.770;9.156;2022-12-07T16:51:27;4.70;99.90
1626;DHT22;806;48.770;9.156;2022-12-07T16:53:54;4.80;99.90
1626;DHT22;806;48.770;9.156;2022-12-07T16:56:21;4.90;99.90
1626;DHT22;806;48.770;9.156;2022-12-07T16:58:48;4.80;99.90
1626;DHT22;806;48.770;9.156;2022-12-07T17:01:17;4.90;99.90
1626;DHT22;806;48.770;9.156;2022-12-07T17:03:45;4.90;99.90
1626;DHT22;806;48.770;9.156;2022-12-07T17:06:13;4.90;99.90